Portada
METAR-TAF:

METAR-TAF

Aeroports :

Henderson-Oxford Airport

Oxford, Carolina del Nord, Estats Units d'Amèrica

latitud: 36-21-42N, longitud: 078-31-45W, altitud: 161 m

Observació

L'informe es va fer fa 15 minuts, a les 15:15 UTC
Vent 3 kt del Nord/Nord-Est
Temperatura 4°C
Humitat 93%
Pressió 1023 hPa
Visibilitat: 16.1 km
Núvols disperses a una alçada de 6000 ft

METAR: KHNZ 151515Z AUTO 02003KT 10SM SCT060 04/03 A3022 RMK AO2 P0001 T00370025

Hora: 10:30 (15:30 UTC)


TAF: manca

Observacions i pronòstics meteorològics de més de 4000 aeroports (METAR i TAF).

Les estacions disponibles són els punts grocs i vermells al mapa.

Posi el ratolí al punt desitjat per veure el nom de l'estació.

Feu clic per veure les observacions i els pronòstics meteorològics.

Per canviar el mapa: feu clic els botons verds amb una creu de color negre per apropar; al botó verd amb un guió per allunyar la imatge; o en les fletxes verdes per a mapes adjacents.


METAR-TAF: